createdAt,value
2022-09-13T00:03:07.418Z,19.35
2022-09-13T00:08:08.078Z,19.42
2022-09-13T00:13:08.401Z,19.49
2022-09-13T00:18:07.146Z,19.54
2022-09-13T00:23:07.150Z,19.53
2022-09-13T00:28:06.209Z,19.35
2022-09-13T00:33:04.981Z,19.25
2022-09-13T00:38:03.655Z,19.31
2022-09-13T00:43:03.645Z,19.37
2022-09-13T00:48:06.469Z,19.39
2022-09-13T00:53:10.799Z,19.32
2022-09-13T00:58:14.456Z,19.01
2022-09-13T01:03:16.257Z,18.90
2022-09-13T01:08:23.104Z,18.93
2022-09-13T01:13:25.937Z,18.89
2022-09-13T01:18:25.085Z,18.75
2022-09-13T01:24:00.525Z,18.69
2022-09-13T01:29:37.451Z,18.69
2022-09-13T01:34:52.635Z,18.72
2022-09-13T01:40:07.546Z,18.58
2022-09-13T01:45:19.200Z,18.65
2022-09-13T01:50:23.743Z,18.70
2022-09-13T01:55:30.041Z,18.75
2022-09-13T02:00:32.253Z,18.62
2022-09-13T02:05:38.861Z,18.56
2022-09-13T02:10:42.834Z,18.76
2022-09-13T02:15:46.069Z,18.91
2022-09-13T02:20:50.557Z,19.06
2022-09-13T02:25:52.369Z,19.14
2022-09-13T02:30:54.464Z,19.17
2022-09-13T02:36:01.147Z,19.13
2022-09-13T02:41:04.254Z,19.14
2022-09-13T02:46:23.339Z,19.14
2022-09-13T02:51:31.596Z,19.02
2022-09-13T02:56:39.735Z,19.06
2022-09-13T03:01:41.206Z,19.05
2022-09-13T03:06:42.063Z,19.09
2022-09-13T03:12:01.773Z,19.11
2022-09-13T03:17:20.427Z,19.13
2022-09-13T03:22:56.051Z,19.08
2022-09-13T03:28:07.003Z,19.02
2022-09-13T03:33:14.010Z,19.01
2022-09-13T03:38:21.003Z,18.95
2022-09-13T03:43:25.776Z,18.90
2022-09-13T03:48:24.932Z,18.83
2022-09-13T03:53:28.445Z,18.74
2022-09-13T03:58:27.729Z,18.62
2022-09-13T04:03:26.777Z,18.59
2022-09-13T04:08:26.842Z,18.59
2022-09-13T04:13:26.047Z,18.58
2022-09-13T04:18:24.726Z,18.56
2022-09-13T04:23:23.374Z,18.53
2022-09-13T04:28:23.772Z,18.52
2022-09-13T04:33:23.324Z,18.45
2022-09-13T04:38:21.905Z,18.39
2022-09-13T04:43:20.573Z,18.36
2022-09-13T04:48:20.658Z,18.31
2022-09-13T04:53:19.339Z,18.30
2022-09-13T04:58:18.867Z,18.14
2022-09-13T05:03:17.540Z,18.14
2022-09-13T05:08:20.128Z,18.06
2022-09-13T05:13:18.527Z,17.95
2022-09-13T05:18:17.169Z,17.98
2022-09-13T05:23:17.160Z,17.86
2022-09-13T05:28:15.817Z,17.87
2022-09-13T05:33:14.497Z,17.95
2022-09-13T05:38:13.311Z,18.00
2022-09-13T05:43:13.471Z,18.08
2022-09-13T05:48:12.445Z,18.12
2022-09-13T05:53:11.002Z,18.20
2022-09-13T05:58:09.811Z,18.31
2022-09-13T06:03:10.636Z,17.93
2022-09-13T06:08:09.365Z,17.99
2022-09-13T06:13:08.214Z,17.95
2022-09-13T06:18:06.922Z,17.79
2022-09-13T06:23:07.071Z,18.03
2022-09-13T06:28:05.918Z,18.04
2022-09-13T06:33:04.870Z,18.11
2022-09-13T06:38:03.700Z,18.23
2022-09-13T06:43:04.017Z,18.44
2022-09-13T06:48:03.586Z,18.43
2022-09-13T06:53:02.682Z,18.31
2022-09-13T06:58:01.575Z,18.41
2022-09-13T07:03:02.340Z,18.25
2022-09-13T07:08:01.434Z,18.14
2022-09-13T07:13:00.516Z,18.42
2022-09-13T07:17:59.721Z,18.41
2022-09-13T07:23:00.107Z,18.80
2022-09-13T07:27:59.129Z,18.94
2022-09-13T07:32:58.114Z,19.13
2022-09-13T07:37:57.194Z,19.25
2022-09-13T07:42:57.885Z,19.33
2022-09-13T07:47:58.454Z,19.53
2022-09-13T07:52:57.639Z,19.52
2022-09-13T07:57:59.766Z,19.72
2022-09-13T08:03:01.393Z,19.85
2022-09-13T08:08:07.824Z,20.09
2022-09-13T08:13:24.294Z,20.20
2022-09-13T08:18:24.056Z,20.48
2022-09-13T08:23:23.958Z,20.65
2022-09-13T08:28:27.868Z,20.48
2022-09-13T08:33:46.408Z,20.71
2022-09-13T08:38:50.207Z,21.16
2022-09-13T08:44:00.567Z,21.60
2022-09-13T08:49:05.997Z,21.83
2022-09-13T08:54:25.250Z,22.80
2022-09-13T09:00:23.525Z,23.95
2022-09-13T09:06:28.086Z,24.56
2022-09-13T09:11:42.970Z,25.45
2022-09-13T09:17:23.788Z,26.74
2022-09-13T09:22:52.443Z,26.87
2022-09-13T09:28:36.669Z,26.33
2022-09-13T09:34:31.900Z,27.74
2022-09-13T09:45:52.165Z,28.95
2022-09-13T09:51:04.859Z,28.31
2022-09-13T09:56:44.371Z,28.94
2022-09-13T10:01:48.255Z,29.08
2022-09-13T10:06:47.838Z,28.54
2022-09-13T10:12:04.247Z,28.97
2022-09-13T10:17:26.768Z,29.42
2022-09-13T10:22:34.741Z,29.20
2022-09-13T10:27:44.113Z,30.03
2022-09-13T10:33:06.775Z,30.38
2022-09-13T10:39:16.650Z,30.83
2022-09-13T10:44:31.500Z,30.79
2022-09-13T10:49:37.954Z,30.47
2022-09-13T10:54:50.717Z,30.85
2022-09-13T11:00:00.647Z,30.70
2022-09-13T11:05:38.757Z,30.47
2022-09-13T11:10:49.640Z,30.00
2022-09-13T11:22:59.686Z,30.25
2022-09-13T11:41:28.255Z,30.76
2022-09-13T11:46:34.442Z,31.35
2022-09-13T11:52:14.160Z,31.84
2022-09-13T11:58:02.066Z,30.75
2022-09-13T12:03:08.235Z,30.84
2022-09-13T12:08:35.283Z,31.33
2022-09-13T12:14:11.148Z,30.72
2022-09-13T12:19:38.299Z,31.26
2022-09-13T12:24:50.301Z,31.80
2022-09-13T12:30:10.428Z,31.61
2022-09-13T12:35:32.888Z,32.34
2022-09-13T12:41:15.158Z,32.41
2022-09-13T12:46:47.037Z,32.64
2022-09-13T12:52:10.916Z,31.91
2022-09-13T12:57:24.370Z,32.45
2022-09-13T13:02:35.028Z,32.79
2022-09-13T13:07:39.271Z,32.71
2022-09-13T13:12:41.864Z,32.60
2022-09-13T13:18:09.924Z,32.51
2022-09-13T13:23:27.403Z,32.42
2022-09-13T13:29:08.299Z,32.48
2022-09-13T13:34:43.851Z,32.53
2022-09-13T13:39:45.801Z,32.13
2022-09-13T13:45:07.899Z,32.10
2022-09-13T13:50:17.541Z,31.41
2022-09-13T13:55:41.443Z,30.62
2022-09-13T14:00:50.547Z,29.93
2022-09-13T14:05:59.022Z,29.23
2022-09-13T14:11:07.542Z,29.14
2022-09-13T14:16:18.832Z,28.93
2022-09-13T14:21:26.872Z,28.86
2022-09-13T14:26:32.858Z,28.39
2022-09-13T14:31:35.585Z,28.44
2022-09-13T14:36:40.117Z,28.47
2022-09-13T14:41:42.042Z,28.51
2022-09-13T14:46:45.111Z,28.51
2022-09-13T14:51:49.152Z,28.88
2022-09-13T14:56:57.968Z,29.50
2022-09-13T15:02:07.891Z,29.98
2022-09-13T15:07:24.884Z,30.35
2022-09-13T15:12:27.975Z,30.71
2022-09-13T15:17:29.995Z,30.68
2022-09-13T15:22:35.201Z,30.26
2022-09-13T15:27:45.660Z,30.19
2022-09-13T15:32:49.697Z,29.98
2022-09-13T15:37:48.639Z,29.63
2022-09-13T15:42:54.399Z,29.23
2022-09-13T15:47:57.305Z,29.06
2022-09-13T15:53:08.982Z,28.92
2022-09-13T15:58:13.618Z,28.69
2022-09-13T16:03:18.375Z,28.55
2022-09-13T16:08:17.614Z,28.42
2022-09-13T16:13:18.457Z,28.37
2022-09-13T16:18:19.396Z,28.20
2022-09-13T16:23:31.635Z,28.04
2022-09-13T16:28:32.908Z,27.83
2022-09-13T16:33:45.806Z,27.64
2022-09-13T16:38:48.332Z,27.49
2022-09-13T16:43:47.875Z,27.26
2022-09-13T16:49:06.404Z,27.10
2022-09-13T16:54:10.653Z,26.97
2022-09-13T16:59:10.155Z,26.78
2022-09-13T17:04:11.745Z,26.62
2022-09-13T17:09:11.068Z,26.45
2022-09-13T17:14:15.815Z,26.33
2022-09-13T17:19:44.564Z,26.12
2022-09-13T17:24:48.106Z,25.86
2022-09-13T17:29:47.257Z,25.50
2022-09-13T17:34:48.752Z,25.11
2022-09-13T17:39:50.981Z,24.89
2022-09-13T17:44:58.194Z,24.74
2022-09-13T17:50:14.964Z,24.49
2022-09-13T17:55:16.900Z,24.25
2022-09-13T18:00:20.756Z,24.08
2022-09-13T18:05:26.760Z,23.89
2022-09-13T18:10:53.033Z,23.65
2022-09-13T18:15:58.444Z,23.40
2022-09-13T18:20:59.898Z,23.34
2022-09-13T18:26:31.948Z,23.29
2022-09-13T18:31:32.391Z,23.20
2022-09-13T18:36:35.117Z,23.12
2022-09-13T18:41:36.482Z,23.04
2022-09-13T18:46:37.623Z,22.80
2022-09-13T18:51:41.566Z,22.59
2022-09-13T18:56:41.618Z,22.57
2022-09-13T19:01:43.179Z,22.50
2022-09-13T19:06:46.062Z,22.26
2022-09-13T19:11:48.349Z,22.17
2022-09-13T19:16:50.698Z,22.12
2022-09-13T19:21:53.391Z,21.98
2022-09-13T19:26:55.656Z,21.84
2022-09-13T19:32:03.536Z,21.69
2022-09-13T19:37:04.401Z,21.61
2022-09-13T19:42:03.640Z,21.49
2022-09-13T19:52:25.328Z,21.26
2022-09-13T19:57:29.639Z,21.22
2022-09-13T20:02:29.147Z,21.16
2022-09-13T20:07:34.019Z,21.01
2022-09-13T20:12:42.237Z,20.99
2022-09-13T20:17:42.113Z,20.99
2022-09-13T20:22:46.206Z,20.98
2022-09-13T20:27:46.639Z,20.85
2022-09-13T20:32:48.193Z,20.81
2022-09-13T20:37:49.375Z,20.80
2022-09-13T20:42:49.499Z,20.80
2022-09-13T20:47:48.818Z,20.76
2022-09-13T20:52:52.542Z,20.94
2022-09-13T20:57:51.812Z,21.14
2022-09-13T21:02:51.526Z,21.30
2022-09-13T21:08:09.739Z,21.38
2022-09-13T21:13:09.677Z,21.38
2022-09-13T21:18:09.802Z,21.41
2022-09-13T21:23:10.870Z,21.40
2022-09-13T21:28:11.064Z,21.39
2022-09-13T21:33:11.623Z,21.36
2022-09-13T21:38:14.406Z,21.38
2022-09-13T21:43:13.477Z,21.25
2022-09-13T21:48:14.470Z,21.14
2022-09-13T21:53:16.199Z,21.10
2022-09-13T21:58:17.199Z,21.08
2022-09-13T22:03:16.137Z,21.05
2022-09-13T22:08:17.362Z,20.99
2022-09-13T22:13:17.209Z,20.98
2022-09-13T22:18:30.003Z,21.02
2022-09-13T22:23:31.149Z,21.03
2022-09-13T22:28:40.361Z,21.03
2022-09-13T22:33:43.775Z,20.95
2022-09-13T22:38:46.159Z,20.89
2022-09-13T22:43:45.150Z,20.79
2022-09-13T22:48:44.953Z,20.75
2022-09-13T22:53:46.866Z,20.74
2022-09-13T22:58:46.754Z,20.70
2022-09-13T23:03:47.123Z,20.64
2022-09-13T23:08:48.612Z,20.52
2022-09-13T23:13:49.210Z,20.48
2022-09-13T23:18:51.751Z,20.27
2022-09-13T23:23:55.591Z,20.17
2022-09-13T23:28:56.981Z,20.10
2022-09-13T23:33:57.869Z,20.07
2022-09-13T23:39:00.224Z,20.03
2022-09-13T23:43:59.094Z,19.86
2022-09-13T23:48:58.455Z,19.86
2022-09-13T23:54:00.759Z,19.84
2022-09-13T23:59:04.949Z,19.82
